Aviation Digital Data Service (ADDS)

Output produced by METARs form (2346 UTC 25 June 2019)
found at http://aviationweather.gov/metar/data/
 
KLCH 252253Z 19004KT 10SM -RA FEW100 SCT120 23/21 A3004 RMK AO2 LTG DSNT SW AND W SLP181 P0011 T02330211
KLCH 252332Z 2600/2624 20006KT P6SM SHRA SCT025 BKN035 BKN120 
     TEMPO 2600/2604 VRB10G20KT 3SM -TSRA BR BKN028CB BKN060 OVC100 
     FM260400 11005KT P6SM VCSH SCT017 BKN025 OVC030 
     FM260600 10005KT 4SM BR SCT022 SCT030 OVC060 
     FM261500 13007KT P6SM BKN100 OVC150 
     PROB30 2618/2624 5SM -TSRA SCT030 BKN050CB